Ardsley, Pennsylvania
Current Conditions -  °F | °C
As of 4:15 AM on Wednesday 22 Oct 2014 (Local Time) from KLOM Reporting Station
Broken Clouds Broken Clouds  
Wind Chill: 12°   Ceiling: 1700
Heat Index: 12°   Visibility: 7mi
Dew Point: 11°   Wind: 3mph
Humidity: 94%   Direction: 30°NNE
Pressure: 29.85"   Gusts: NA
Location:  40.1012°N, 75.1722°W
Report Text: KLOM 220815Z AUTO 03003KT 7SM BKN017 BKN085 12/11 A2985 RMK AO1
Loading
Personal Weather Stations






























Interactive Weather Map
Tropical Storm Tracking
New forecast layout! Learn more

10-Day Weather Forecast

Advertisements
Track Severe Weather on mobile